Time;durP1;ratioP1;P1;durP2;ratioP2;P2;SDS_P1;SDS_P2;PMS_P1;PMS_P2;Temp;Humidity;BMP_temperature;BMP_pressure;BME280_temperature;BME280_humidity;BME280_pressure;Samples;Min_cycle;Max_cycle;Signal;HPM_P1;HPM_P2
2023/04/28 00:00:49;;;;;;;9.90;7.35;;;6.70;99.90;;;;;;5031145;28;20580;-84
2023/04/28 00:03:15;;;;;;;11.30;8.40;;;6.70;99.90;;;;;;5015754;28;20060;-83
2023/04/28 00:05:41;;;;;;;11.43;7.43;;;6.70;99.90;;;;;;5029762;28;20052;-85
2023/04/28 00:08:07;;;;;;;10.07;7.43;;;6.70;99.90;;;;;;5015039;28;20029;-83
2023/04/28 00:10:33;;;;;;;9.18;6.80;;;6.70;99.90;;;;;;5027378;28;20211;-83
2023/04/28 00:12:58;;;;;;;9.15;7.80;;;6.70;99.90;;;;;;5012644;28;20145;-82
2023/04/28 00:15:24;;;;;;;12.75;8.07;;;6.70;99.90;;;;;;5030157;28;20568;-84
2023/04/28 00:17:49;;;;;;;9.98;7.43;;;6.70;99.90;;;;;;5010423;28;20095;-84
2023/04/28 00:20:15;;;;;;;8.93;7.45;;;6.70;99.90;;;;;;5032800;28;20458;-83
2023/04/28 00:22:41;;;;;;;10.50;8.07;;;7.10;99.90;;;;;;5046670;28;20413;-83
2023/04/28 00:25:07;;;;;;;11.73;8.05;;;6.60;99.90;;;;;;5030567;28;20510;-83
2023/04/28 00:27:34;;;;;;;9.52;7.45;;;6.60;99.90;;;;;;5010306;28;20131;-83
2023/04/28 00:30:00;;;;;;;10.77;8.63;;;6.60;99.90;;;;;;5049112;28;20132;-83
2023/04/28 00:32:26;;;;;;;11.18;7.80;;;6.60;99.90;;;;;;5030206;28;22090;-83
2023/04/28 00:34:52;;;;;;;10.77;8.05;;;6.60;99.90;;;;;;5046977;28;20507;-82
2023/04/28 00:37:21;;;;;;;10.40;8.05;;;6.60;99.90;;;;;;5029503;28;20052;-83
2023/04/28 00:39:46;;;;;;;11.10;8.35;;;6.60;99.90;;;;;;5029517;28;20056;-83
2023/04/28 00:42:13;;;;;;;11.75;8.10;;;6.60;99.90;;;;;;5030898;28;20053;-84
2023/04/28 00:44:40;;;;;;;13.75;8.13;;;6.60;99.90;;;;;;5039589;28;20103;-84
2023/04/28 00:47:08;;;;;;;12.63;9.52;;;6.60;99.90;;;;;;5044225;28;20114;-83
2023/04/28 00:49:34;;;;;;;12.25;8.77;;;6.50;99.90;;;;;;5029443;28;20488;-83
2023/04/28 00:52:06;;;;;;;14.05;8.55;;;6.60;99.90;;;;;;5031786;28;21716;-83
2023/04/28 00:54:36;;;;;;;12.15;9.13;;;6.50;99.90;;;;;;5045456;28;20099;-84
2023/04/28 00:57:03;;;;;;;11.80;8.27;;;6.50;99.90;;;;;;5027333;28;20041;-83
2023/04/28 00:59:30;;;;;;;13.75;8.68;;;6.50;99.90;;;;;;5030350;28;20434;-83
2023/04/28 01:01:55;;;;;;;10.90;8.23;;;6.50;99.90;;;;;;5013523;28;20053;-84
2023/04/28 01:04:22;;;;;;;12.85;8.13;;;6.50;99.90;;;;;;5047279;28;20411;-83
2023/04/28 01:06:49;;;;;;;13.93;9.00;;;6.50;99.90;;;;;;5046602;28;20037;-84
2023/04/28 01:09:15;;;;;;;11.55;8.15;;;6.50;99.90;;;;;;5024093;28;20037;-83
2023/04/28 01:11:41;;;;;;;12.65;7.85;;;6.50;99.90;;;;;;5039617;28;20118;-83
2023/04/28 01:14:06;;;;;;;12.05;8.73;;;6.50;99.90;;;;;;5027769;28;20130;-83
2023/04/28 01:16:32;;;;;;;13.50;9.07;;;6.50;99.90;;;;;;5026263;28;20549;-84
2023/04/28 01:18:59;;;;;;;12.35;9.05;;;6.50;99.90;;;;;;5012487;28;20076;-83
2023/04/28 01:21:27;;;;;;;12.88;8.77;;;6.50;99.90;;;;;;5013989;28;20063;-84
2023/04/28 01:23:54;;;;;;;11.77;8.95;;;6.50;99.90;;;;;;5030745;28;20040;-84
2023/04/28 01:26:20;;;;;;;12.63;8.52;;;6.50;99.90;;;;;;5029926;28;20051;-84
2023/04/28 01:28:46;;;;;;;12.52;8.93;;;6.50;99.90;;;;;;5029616;28;20041;-84
2023/04/28 01:31:11;;;;;;;11.13;9.30;;;6.50;99.90;;;;;;5030101;28;20033;-84
2023/04/28 01:33:37;;;;;;;10.52;8.65;;;6.50;99.90;;;;;;5028134;28;20391;-83
2023/04/28 01:36:02;;;;;;;12.32;8.38;;;6.50;99.90;;;;;;5058779;28;20170;-84
2023/04/28 01:38:28;;;;;;;12.52;8.68;;;6.50;99.90;;;;;;5028314;28;20171;-83
2023/04/28 01:40:55;;;;;;;10.82;8.63;;;6.50;99.90;;;;;;5028571;28;20049;-83
2023/04/28 01:43:23;;;;;;;15.00;9.48;;;6.50;99.90;;;;;;5042704;28;20942;-84
2023/04/28 01:45:48;;;;;;;15.40;9.32;;;6.50;99.90;;;;;;5028819;28;20477;-83
2023/04/28 01:48:14;;;;;;;13.55;9.13;;;6.50;99.90;;;;;;5019243;28;20135;-83
2023/04/28 01:50:39;;;;;;;13.70;10.02;;;6.50;99.90;;;;;;5029579;28;20067;-84
2023/04/28 01:53:05;;;;;;;16.58;10.15;;;6.50;99.90;;;;;;5047088;28;20781;-84
2023/04/28 01:55:31;;;;;;;12.38;9.02;;;6.50;99.90;;;;;;5027529;28;20136;-83
2023/04/28 01:57:59;;;;;;;12.88;9.70;;;6.50;99.90;;;;;;5029656;28;20063;-84
2023/04/28 02:00:26;;;;;;;13.30;9.20;;;6.50;99.90;;;;;;5027738;28;20431;-84
2023/04/28 02:02:51;;;;;;;13.70;9.70;;;6.50;99.90;;;;;;5046818;28;21093;-84
2023/04/28 02:05:17;;;;;;;13.57;9.20;;;6.50;99.90;;;;;;5046300;28;20577;-84
2023/04/28 02:07:43;;;;;;;15.73;10.60;;;6.50;99.90;;;;;;5026784;28;20044;-85
2023/04/28 02:10:09;;;;;;;12.82;9.65;;;6.50;99.90;;;;;;5028719;28;20059;-83
2023/04/28 02:12:34;;;;;;;15.60;10.20;;;6.50;99.90;;;;;;5029485;28;20076;-84
2023/04/28 02:15:00;;;;;;;13.13;9.85;;;6.50;99.90;;;;;;5005168;28;20073;-84
2023/04/28 02:17:25;;;;;;;13.73;10.18;;;6.50;99.90;;;;;;5022854;28;20479;-83
2023/04/28 02:19:57;;;;;;;13.85;9.82;;;6.60;99.90;;;;;;5029664;28;20065;-84
2023/04/28 02:22:23;;;;;;;14.35;10.15;;;6.50;99.90;;;;;;5045851;28;20049;-84
2023/04/28 02:24:49;;;;;;;14.13;9.77;;;6.50;99.90;;;;;;5028255;28;20060;-83
2023/04/28 02:27:15;;;;;;;15.57;10.27;;;7.00;99.90;;;;;;5012280;28;20487;-83
2023/04/28 02:29:41;;;;;;;14.93;10.68;;;6.50;99.90;;;;;;5025580;28;20055;-83
2023/04/28 02:32:06;;;;;;;17.77;10.40;;;6.50;99.90;;;;;;5023845;28;20049;-83
2023/04/28 02:34:32;;;;;;;16.55;10.48;;;6.50;99.90;;;;;;5046363;28;20084;-83
2023/04/28 02:36:58;;;;;;;19.30;10.68;;;6.50;99.90;;;;;;5028775;28;20049;-84
2023/04/28 02:39:25;;;;;;;12.60;10.07;;;6.50;99.90;;;;;;5023494;28;20046;-84
2023/04/28 02:41:52;;;;;;;16.27;10.82;;;6.50;99.90;;;;;;5026062;28;20087;-84
2023/04/28 02:44:17;;;;;;;14.95;10.30;;;6.50;99.90;;;;;;5025880;28;20056;-84
2023/04/28 02:46:43;;;;;;;16.02;10.10;;;6.50;99.90;;;;;;5024068;28;20038;-83
2023/04/28 02:49:08;;;;;;;15.23;10.85;;;6.40;99.90;;;;;;5009348;28;20450;-84
2023/04/28 02:51:34;;;;;;;18.30;9.70;;;6.40;99.90;;;;;;5008069;28;20151;-84
2023/04/28 02:54:00;;;;;;;14.43;10.50;;;6.30;99.90;;;;;;5024364;28;20045;-84
2023/04/28 02:56:25;;;;;;;15.40;10.57;;;6.30;99.90;;;;;;5025505;28;20068;-84
2023/04/28 02:58:51;;;;;;;14.60;10.65;;;6.30;99.90;;;;;;5023992;28;20120;-84
2023/04/28 03:01:17;;;;;;;14.98;10.38;;;6.20;99.90;;;;;;5024856;28;20080;-83
2023/04/28 03:03:43;;;;;;;17.77;11.32;;;6.20;99.90;;;;;;5025528;28;20349;-83
2023/04/28 03:06:08;;;;;;;17.05;10.82;;;6.20;99.90;;;;;;5009948;28;20048;-83
2023/04/28 03:08:34;;;;;;;14.70;11.00;;;6.20;99.90;;;;;;5026366;28;20425;-82
2023/04/28 03:10:59;;;;;;;13.98;10.95;;;6.20;99.90;;;;;;5028580;28;20042;-83
2023/04/28 03:13:26;;;;;;;17.73;11.02;;;6.20;99.90;;;;;;5028602;28;20049;-82
2023/04/28 03:15:51;;;;;;;13.10;10.38;;;6.60;99.90;;;;;;5028139;28;20037;-82
2023/04/28 03:18:17;;;;;;;16.10;11.40;;;6.20;99.90;;;;;;5024504;28;20092;-83
2023/04/28 03:20:43;;;;;;;19.88;11.20;;;6.20;99.90;;;;;;5029730;28;20053;-83
2023/04/28 03:23:09;;;;;;;15.27;10.55;;;6.20;99.90;;;;;;5028103;28;20060;-84
2023/04/28 03:25:35;;;;;;;15.55;10.63;;;6.20;99.90;;;;;;5029514;28;20061;-83
2023/04/28 03:28:00;;;;;;;14.70;10.95;;;6.20;99.90;;;;;;5028691;28;20161;-82
2023/04/28 03:30:26;;;;;;;18.00;11.40;;;6.20;99.90;;;;;;5029003;28;20063;-82
2023/04/28 03:32:52;;;;;;;14.55;10.75;;;6.20;99.90;;;;;;5030937;28;20041;-82
2023/04/28 03:35:17;;;;;;;16.27;10.90;;;6.20;99.90;;;;;;5029192;28;20045;-82
2023/04/28 03:37:43;;;;;;;16.63;11.10;;;6.20;99.90;;;;;;5028987;28;20052;-83
2023/04/28 03:40:09;;;;;;;15.48;11.00;;;6.20;99.90;;;;;;5027163;28;20103;-82
2023/04/28 03:42:35;;;;;;;16.63;11.35;;;6.20;99.90;;;;;;5029638;28;20418;-82
2023/04/28 03:45:02;;;;;;;17.98;11.10;;;6.20;99.90;;;;;;5028436;28;20069;-83
2023/04/28 03:47:28;;;;;;;15.35;10.35;;;6.20;99.90;;;;;;5029511;28;20059;-83
2023/04/28 03:49:53;;;;;;;17.23;10.85;;;6.30;99.90;;;;;;5028183;28;20399;-82
2023/04/28 03:52:19;;;;;;;13.50;9.98;;;6.20;99.90;;;;;;5029755;28;20033;-82
2023/04/28 03:54:45;;;;;;;19.35;11.75;;;6.20;99.90;;;;;;5029111;28;20053;-83
2023/04/28 03:57:11;;;;;;;16.77;10.85;;;6.20;99.90;;;;;;5011707;28;20053;-83
2023/04/28 03:59:39;;;;;;;18.25;11.68;;;6.20;99.90;;;;;;5011474;28;20131;-83
2023/04/28 04:02:05;;;;;;;15.75;10.48;;;6.20;99.90;;;;;;5028800;28;20045;-82
2023/04/28 04:04:30;;;;;;;15.40;10.85;;;6.20;99.90;;;;;;5027985;28;20102;-83
2023/04/28 04:06:56;;;;;;;18.70;11.48;;;6.20;99.90;;;;;;5029875;28;20049;-83
2023/04/28 04:09:22;;;;;;;16.23;10.63;;;6.20;99.90;;;;;;5026259;28;20179;-82
2023/04/28 04:11:47;;;;;;;18.70;11.57;;;6.20;99.90;;;;;;5027508;28;20128;-83
2023/04/28 04:14:13;;;;;;;17.95;12.35;;;6.20;99.90;;;;;;5026693;28;20045;-83
2023/04/28 04:16:38;;;;;;;17.95;11.30;;;6.30;99.90;;;;;;5028030;28;20829;-83
2023/04/28 04:19:04;;;;;;;15.85;10.38;;;6.30;99.90;;;;;;5028268;28;20045;-83
2023/04/28 04:21:30;;;;;;;15.07;10.48;;;6.30;99.90;;;;;;5028181;28;20046;-83
2023/04/28 04:23:56;;;;;;;15.15;10.85;;;6.30;99.90;;;;;;5026236;28;20085;-83
2023/04/28 04:26:21;;;;;;;17.38;11.77;;;6.30;99.90;;;;;;5010883;28;20111;-83
2023/04/28 04:28:47;;;;;;;14.95;10.68;;;6.30;99.90;;;;;;5026002;28;20068;-83
2023/04/28 04:31:14;;;;;;;16.52;11.43;;;6.30;99.90;;;;;;5028296;28;20095;-83
2023/04/28 04:33:39;;;;;;;18.90;11.35;;;6.30;99.90;;;;;;5026684;28;20057;-84
2023/04/28 04:36:05;;;;;;;19.00;11.55;;;6.30;99.90;;;;;;5024944;28;20053;-83
2023/04/28 04:38:31;;;;;;;18.13;11.65;;;6.30;99.90;;;;;;5027942;28;20514;-82
2023/04/28 04:40:56;;;;;;;18.33;11.18;;;6.30;99.90;;;;;;5046432;28;20060;-83
2023/04/28 04:43:22;;;;;;;19.30;12.60;;;6.30;99.90;;;;;;5045689;28;20518;-83
2023/04/28 04:45:48;;;;;;;16.02;11.45;;;6.30;99.90;;;;;;5032225;28;20485;-83
2023/04/28 04:48:13;;;;;;;16.90;11.95;;;6.30;99.90;;;;;;5029841;28;20045;-82
2023/04/28 04:50:41;;;;;;;17.40;11.75;;;6.30;99.90;;;;;;5031617;28;20063;-83
2023/04/28 04:53:06;;;;;;;15.55;11.30;;;6.40;99.90;;;;;;5014475;28;20049;-83
2023/04/28 04:55:32;;;;;;;15.65;10.95;;;6.30;99.90;;;;;;5029423;28;20147;-83
2023/04/28 04:57:58;;;;;;;16.05;10.90;;;6.40;99.90;;;;;;5028772;28;20685;-85
2023/04/28 05:00:24;;;;;;;17.25;11.40;;;6.40;99.90;;;;;;5013027;28;20040;-85
2023/04/28 05:02:49;;;;;;;16.05;11.15;;;6.40;99.90;;;;;;5048077;28;20083;-83
2023/04/28 05:05:15;;;;;;;18.15;12.30;;;6.40;99.90;;;;;;5030542;28;20162;-83
2023/04/28 05:07:41;;;;;;;15.32;10.88;;;6.50;99.90;;;;;;5027442;28;20115;-83
2023/04/28 05:10:10;;;;;;;15.38;11.52;;;6.50;99.90;;;;;;5022535;28;20091;-83
2023/04/28 05:12:36;;;;;;;15.38;11.13;;;6.50;99.90;;;;;;5011941;28;20521;-83
2023/04/28 05:15:01;;;;;;;18.65;11.70;;;6.60;99.90;;;;;;5023950;28;20148;-83
2023/04/28 05:17:27;;;;;;;17.08;11.27;;;6.60;99.90;;;;;;5029734;28;20056;-83
2023/04/28 05:19:52;;;;;;;17.65;10.82;;;6.60;99.90;;;;;;5039489;28;20145;-83
2023/04/28 05:22:18;;;;;;;19.30;11.00;;;6.60;99.90;;;;;;5029287;28;20072;-84
2023/04/28 05:24:44;;;;;;;16.20;12.10;;;6.70;99.90;;;;;;5029473;28;20060;-84
2023/04/28 05:27:09;;;;;;;17.40;11.43;;;6.80;99.90;;;;;;5027808;28;20476;-84
2023/04/28 05:29:35;;;;;;;14.90;10.82;;;6.80;99.90;;;;;;5030610;28;20040;-84
2023/04/28 05:32:01;;;;;;;16.00;11.07;;;6.90;99.90;;;;;;5029387;28;20138;-83
2023/04/28 05:34:27;;;;;;;19.10;11.93;;;7.00;99.90;;;;;;5029080;28;20636;-84
2023/04/28 05:36:52;;;;;;;16.42;10.63;;;6.80;99.90;;;;;;5013168;28;20131;-84
2023/04/28 05:39:18;;;;;;;13.82;10.55;;;7.00;99.90;;;;;;5031194;28;20494;-84
2023/04/28 05:41:44;;;;;;;14.93;10.38;;;7.10;99.90;;;;;;5028261;28;20049;-84
2023/04/28 05:44:10;;;;;;;16.63;9.50;;;7.10;99.90;;;;;;5029992;28;20826;-83
2023/04/28 05:46:36;;;;;;;13.25;9.77;;;7.10;99.90;;;;;;5029519;28;20057;-84
2023/04/28 05:49:02;;;;;;;15.45;10.10;;;7.10;99.90;;;;;;5030227;28;20131;-84
2023/04/28 05:51:27;;;;;;;14.38;10.65;;;7.20;99.90;;;;;;5029907;28;20143;-84
2023/04/28 05:53:53;;;;;;;15.45;9.60;;;7.20;99.90;;;;;;5026996;28;20096;-84
2023/04/28 05:56:19;;;;;;;13.70;10.25;;;7.20;99.90;;;;;;5032146;28;20517;-84
2023/04/28 05:58:46;;;;;;;15.40;10.13;;;7.30;99.90;;;;;;5030604;28;20052;-83
2023/04/28 06:01:12;;;;;;;13.00;9.63;;;7.30;99.90;;;;;;5021134;28;20054;-84
2023/04/28 06:03:39;;;;;;;15.38;10.43;;;7.40;99.90;;;;;;5021436;28;20042;-81
2023/04/28 06:06:05;;;;;;;13.35;9.00;;;7.40;99.90;;;;;;5030825;28;20519;-83
2023/04/28 06:08:31;;;;;;;17.42;10.48;;;7.50;99.90;;;;;;5030214;28;20364;-83
2023/04/28 06:10:56;;;;;;;17.17;10.15;;;7.50;99.90;;;;;;5048314;28;20044;-83
2023/04/28 06:13:22;;;;;;;14.52;11.05;;;7.50;99.90;;;;;;5028618;28;20507;-83
2023/04/28 06:15:48;;;;;;;16.60;10.38;;;7.50;99.90;;;;;;5021143;28;20033;-82
2023/04/28 06:18:15;;;;;;;16.35;10.27;;;7.50;99.90;;;;;;5010846;28;20056;-82
2023/04/28 06:20:41;;;;;;;16.73;10.30;;;7.50;99.90;;;;;;5036080;28;20526;-83
2023/04/28 06:23:07;;;;;;;13.63;10.50;;;7.50;99.90;;;;;;5029770;28;20095;-82
2023/04/28 06:25:35;;;;;;;17.80;10.05;;;7.50;99.90;;;;;;5029927;28;20067;-83
2023/04/28 06:28:00;;;;;;;14.70;10.75;;;7.50;99.90;;;;;;5029610;28;20049;-83
2023/04/28 06:30:26;;;;;;;15.85;10.73;;;7.40;99.90;;;;;;5012351;28;20402;-83
2023/04/28 06:32:52;;;;;;;14.15;10.15;;;7.40;99.90;;;;;;5046157;28;20106;-83
2023/04/28 06:35:18;;;;;;;13.00;9.82;;;7.40;99.90;;;;;;5029917;28;20049;-83
2023/04/28 06:37:43;;;;;;;14.57;10.10;;;7.40;99.90;;;;;;5047428;28;20051;-84
2023/04/28 06:40:10;;;;;;;14.32;10.07;;;7.40;99.90;;;;;;5029508;28;20056;-82
2023/04/28 06:42:35;;;;;;;13.48;9.90;;;7.40;99.90;;;;;;5012740;28;20049;-82
2023/04/28 06:45:01;;;;;;;15.70;9.70;;;7.40;99.90;;;;;;5046674;28;20099;-83
2023/04/28 06:47:27;;;;;;;13.18;9.77;;;7.50;99.90;;;;;;5012844;28;20083;-83
2023/04/28 06:49:53;;;;;;;12.57;9.55;;;7.40;99.90;;;;;;5046422;28;20078;-82
2023/04/28 06:52:20;;;;;;;13.45;9.55;;;7.40;99.90;;;;;;5046918;28;20053;-82
2023/04/28 06:54:46;;;;;;;15.85;10.05;;;7.40;99.90;;;;;;5027822;28;20041;-82
2023/04/28 06:57:12;;;;;;;15.75;10.27;;;7.40;99.90;;;;;;5029242;28;20037;-82
2023/04/28 06:59:38;;;;;;;14.48;9.82;;;7.50;99.90;;;;;;5047380;28;20067;-83
2023/04/28 07:02:04;;;;;;;13.77;9.50;;;7.50;99.90;;;;;;5029749;28;20057;-82
2023/04/28 07:04:29;;;;;;;14.15;9.55;;;7.60;99.90;;;;;;5028454;28;20110;-83
2023/04/28 07:06:55;;;;;;;12.93;9.52;;;7.60;99.90;;;;;;5028222;28;20056;-82
2023/04/28 07:09:21;;;;;;;16.92;10.13;;;7.80;99.90;;;;;;5028381;28;20045;-83
2023/04/28 07:11:47;;;;;;;13.48;9.77;;;7.80;99.90;;;;;;5029076;28;20049;-82
2023/04/28 07:14:12;;;;;;;13.93;9.63;;;7.90;99.90;;;;;;5027865;28;20072;-82
2023/04/28 07:16:38;;;;;;;14.05;10.23;;;8.00;99.90;;;;;;5045590;28;20045;-82
2023/04/28 07:19:03;;;;;;;11.55;8.88;;;8.10;99.90;;;;;;5026933;28;20131;-83
2023/04/28 07:21:29;;;;;;;13.90;9.55;;;8.10;99.90;;;;;;5011207;28;20134;-82
2023/04/28 07:23:57;;;;;;;13.43;8.90;;;8.20;99.90;;;;;;5044666;28;20518;-83
2023/04/28 07:26:23;;;;;;;20.30;9.30;;;8.30;99.90;;;;;;5027626;28;20415;-83
2023/04/28 07:28:48;;;;;;;13.13;8.75;;;8.50;99.90;;;;;;5027916;28;20052;-83
2023/04/28 07:31:14;;;;;;;13.98;9.13;;;8.60;99.90;;;;;;5028738;28;20118;-83
2023/04/28 07:33:40;;;;;;;12.90;8.90;;;8.50;99.90;;;;;;5028844;28;20360;-83
2023/04/28 07:36:06;;;;;;;14.18;8.98;;;8.60;99.90;;;;;;5028352;28;20041;-83
2023/04/28 07:38:34;;;;;;;11.40;8.85;;;8.60;99.90;;;;;;5046009;28;20060;-83
2023/04/28 07:40:59;;;;;;;14.85;9.75;;;8.60;99.90;;;;;;5045896;28;20085;-83
2023/04/28 07:43:25;;;;;;;18.00;9.43;;;8.60;99.90;;;;;;5028539;28;20099;-83
2023/04/28 07:45:50;;;;;;;14.00;8.57;;;8.60;99.90;;;;;;5046547;28;20041;-83
2023/04/28 07:48:16;;;;;;;12.55;9.40;;;8.70;99.90;;;;;;5047033;28;20037;-83
2023/04/28 07:50:42;;;;;;;15.20;9.48;;;8.80;99.90;;;;;;5046454;28;20503;-84
2023/04/28 07:53:07;;;;;;;12.23;8.77;;;8.90;99.90;;;;;;5046275;28;20439;-83
2023/04/28 07:55:33;;;;;;;12.00;8.48;;;9.00;99.90;;;;;;5031726;28;20076;-83
2023/04/28 07:57:59;;;;;;;11.65;9.30;;;9.10;99.90;;;;;;5031825;28;20052;-82
2023/04/28 08:00:25;;;;;;;12.27;8.48;;;9.20;99.90;;;;;;5049216;28;20052;-83
2023/04/28 08:02:50;;;;;;;11.15;8.85;;;9.30;99.90;;;;;;5032529;28;20538;-83
2023/04/28 08:05:16;;;;;;;14.55;8.40;;;9.50;99.90;;;;;;5032103;28;20518;-83
2023/04/28 08:07:42;;;;;;;12.20;8.48;;;9.60;99.90;;;;;;5049729;28;20503;-83
2023/04/28 08:10:11;;;;;;;13.90;8.82;;;9.80;99.90;;;;;;5049724;28;20131;-83
2023/04/28 08:12:37;;;;;;;10.60;8.75;;;9.80;99.90;;;;;;5049296;28;20060;-83
2023/04/28 08:15:03;;;;;;;12.05;8.50;;;9.90;99.90;;;;;;5048821;28;20484;-83
2023/04/28 08:17:29;;;;;;;11.20;7.80;;;9.90;99.90;;;;;;5049709;28;20049;-83
2023/04/28 08:19:54;;;;;;;12.10;8.35;;;9.90;99.90;;;;;;5031159;28;20503;-83
2023/04/28 08:22:20;;;;;;;10.80;8.30;;;10.10;99.90;;;;;;5013633;28;20043;-83
2023/04/28 08:24:45;;;;;;;12.13;8.18;;;10.20;99.90;;;;;;5031400;28;20036;-82
2023/04/28 08:27:11;;;;;;;11.15;8.32;;;10.20;99.90;;;;;;5050022;28;20033;-83
2023/04/28 08:29:39;;;;;;;10.57;8.75;;;10.30;99.90;;;;;;5031321;28;20037;-83
2023/04/28 08:32:05;;;;;;;13.35;8.80;;;10.40;99.90;;;;;;5049296;28;20049;-82
2023/04/28 08:34:31;;;;;;;10.63;7.57;;;10.50;99.90;;;;;;5048686;28;20102;-84
2023/04/28 08:36:57;;;;;;;11.55;8.20;;;10.50;99.90;;;;;;5029687;28;20611;-83
2023/04/28 08:39:25;;;;;;;10.05;8.32;;;10.40;99.90;;;;;;5031225;28;20045;-83
2023/04/28 08:41:51;;;;;;;10.85;8.40;;;10.40;99.90;;;;;;5015558;28;20045;-83
2023/04/28 08:44:17;;;;;;;11.20;8.40;;;10.40;99.90;;;;;;5028737;28;20053;-82
2023/04/28 08:46:44;;;;;;;14.40;8.50;;;10.40;99.90;;;;;;5029646;28;20053;-83
2023/04/28 08:49:16;;;;;;;12.23;8.55;;;10.40;99.90;;;;;;5049743;28;20064;-83
2023/04/28 08:51:47;;;;;;;11.05;9.13;;;10.40;99.90;;;;;;5023544;28;20049;-83
2023/04/28 08:54:15;;;;;;;9.70;8.02;;;10.50;99.90;;;;;;5049423;28;20061;-83
2023/04/28 08:56:44;;;;;;;11.38;8.75;;;10.50;99.90;;;;;;5031452;28;20049;-83
2023/04/28 08:59:10;;;;;;;9.60;8.60;;;10.60;99.90;;;;;;5048713;28;20502;-83
2023/04/28 09:01:36;;;;;;;10.40;8.10;;;10.60;99.90;;;;;;5049111;28;20045;-83
2023/04/28 09:04:02;;;;;;;11.40;9.77;;;10.70;99.90;;;;;;5058149;28;20387;-83
2023/04/28 09:06:35;;;;;;;13.10;8.95;;;10.90;99.90;;;;;;5025281;28;20524;-83
2023/04/28 09:09:21;;;;;;;11.13;8.77;;;11.00;99.90;;;;;;5024393;28;20049;-84
2023/04/28 09:12:01;;;;;;;12.45;8.98;;;11.10;99.90;;;;;;5031399;28;20139;-83
2023/04/28 09:14:28;;;;;;;10.90;8.18;;;11.30;99.90;;;;;;5047271;28;20053;-83
2023/04/28 09:16:54;;;;;;;10.25;9.18;;;11.50;99.90;;;;;;5031083;28;20084;-83
2023/04/28 09:19:20;;;;;;;9.52;8.52;;;11.60;99.90;;;;;;5031314;28;20055;-84
2023/04/28 09:21:55;;;;;;;12.20;8.55;;;11.70;99.90;;;;;;5031116;28;20457;-83
2023/04/28 09:24:25;;;;;;;10.20;8.90;;;11.70;99.90;;;;;;5031016;28;20383;-85
2023/04/28 09:26:51;;;;;;;11.40;8.63;;;11.80;99.90;;;;;;5016660;28;20136;-84
2023/04/28 09:29:16;;;;;;;11.95;8.63;;;11.90;99.90;;;;;;5030046;28;20144;-83
2023/04/28 09:31:42;;;;;;;11.15;8.25;;;12.10;99.90;;;;;;5030393;28;20045;-83
2023/04/28 09:34:08;;;;;;;9.35;8.10;;;12.30;99.90;;;;;;5030636;28;20083;-83
2023/04/28 09:36:34;;;;;;;9.98;7.93;;;12.40;99.90;;;;;;5014732;28;20444;-83
2023/04/28 09:39:00;;;;;;;11.15;8.40;;;12.40;99.90;;;;;;5020021;28;20054;-83
2023/04/28 09:41:37;;;;;;;9.93;8.65;;;12.60;99.90;;;;;;5016583;28;20518;-84
2023/04/28 09:44:12;;;;;;;9.18;7.93;;;12.70;99.90;;;;;;4993287;28;20453;-82
2023/04/28 09:46:39;;;;;;;9.70;8.80;;;12.80;99.90;;;;;;4991678;28;20053;-81
2023/04/28 09:49:04;;;;;;;12.40;8.63;;;12.80;99.90;;;;;;5007784;28;20141;-82
2023/04/28 09:51:31;;;;;;;9.02;8.02;;;13.00;99.90;;;;;;5006768;28;20132;-83
2023/04/28 09:53:59;;;;;;;11.85;8.70;;;13.20;99.90;;;;;;5007908;28;20472;-84
2023/04/28 09:56:28;;;;;;;13.13;8.50;;;13.40;99.90;;;;;;5007106;28;20672;-84
2023/04/28 09:58:57;;;;;;;8.77;7.97;;;13.50;99.90;;;;;;5005696;28;20090;-82
2023/04/28 10:01:26;;;;;;;8.98;8.07;;;13.60;99.90;;;;;;5007009;28;20420;-83
2023/04/28 10:03:52;;;;;;;11.18;8.43;;;13.80;99.90;;;;;;5007854;28;20042;-83
2023/04/28 10:06:19;;;;;;;10.57;8.25;;;14.00;99.90;;;;;;5007764;28;20500;-82
2023/04/28 10:08:47;;;;;;;9.88;8.07;;;14.20;99.90;;;;;;5008791;28;20049;-82
2023/04/28 10:11:15;;;;;;;14.43;8.27;;;14.10;99.90;;;;;;5008354;28;20046;-83
2023/04/28 10:13:42;;;;;;;9.85;8.82;;;14.00;99.90;;;;;;5006369;28;20111;-83
2023/04/28 10:16:09;;;;;;;9.38;7.82;;;14.00;99.90;;;;;;5007851;28;20042;-83
2023/04/28 10:18:36;;;;;;;9.73;7.65;;;14.00;99.90;;;;;;5006574;28;20073;-83
2023/04/28 10:21:04;;;;;;;8.95;7.95;;;14.00;99.90;;;;;;5004768;28;20132;-82
2023/04/28 10:24:08;;;;;;;29.33;22.83;;;13.90;99.90;;;;;;5004994;28;20073;-83
2023/04/28 10:27:04;;;;;;;50.28;37.72;;;13.80;99.90;;;;;;5007991;28;20083;-84
2023/04/28 10:29:31;;;;;;;24.30;21.00;;;13.80;99.90;;;;;;4996185;28;20097;-83
2023/04/28 10:32:20;;;;;;;12.68;10.10;;;14.00;99.90;;;;;;4990767;28;20065;-84
2023/04/28 10:34:47;;;;;;;10.95;9.80;;;14.00;99.90;;;;;;5008294;28;20049;-83
2023/04/28 10:37:20;;;;;;;16.73;15.07;;;14.10;99.90;;;;;;5008460;28;20156;-83
2023/04/28 10:40:27;;;;;;;11.90;10.15;;;14.10;99.90;;;;;;4999579;28;20050;-84
2023/04/28 10:42:55;;;;;;;11.68;9.90;;;14.30;99.90;;;;;;5001797;28;20798;-85
2023/04/28 10:45:52;;;;;;;11.10;9.77;;;14.30;99.90;;;;;;5024724;28;20068;-83
2023/04/28 10:48:18;;;;;;;10.23;8.70;;;14.40;99.90;;;;;;5024412;28;20055;-83
2023/04/28 10:51:02;;;;;;;10.15;9.05;;;14.60;99.90;;;;;;5026528;28;20045;-83
2023/04/28 10:53:48;;;;;;;12.80;11.38;;;14.90;99.90;;;;;;5024239;28;20887;-83
2023/04/28 10:56:22;;;;;;;11.88;10.50;;;15.00;99.90;;;;;;5025482;28;20048;-83
2023/04/28 10:58:54;;;;;;;9.80;8.80;;;15.10;99.90;;;;;;5025572;28;20049;-83
2023/04/28 11:01:25;;;;;;;136.93;101.32;;;15.10;99.90;;;;;;5026156;28;20136;-83
2023/04/28 11:03:58;;;;;;;16.40;13.17;;;15.20;99.90;;;;;;5009377;28;20049;-83
2023/04/28 11:06:41;;;;;;;11.00;9.90;;;15.20;99.90;;;;;;5026705;28;20320;-84
2023/04/28 11:09:19;;;;;;;15.82;11.05;;;15.10;99.90;;;;;;5008810;28;20049;-83
2023/04/28 11:12:04;;;;;;;21.00;17.23;;;15.00;99.90;;;;;;5027537;28;20046;-83
2023/04/28 11:14:32;;;;;;;11.10;9.60;;;15.00;99.90;;;;;;5026321;28;20135;-83
2023/04/28 11:17:12;;;;;;;10.30;9.27;;;15.00;99.90;;;;;;5026484;28;20216;-82
2023/04/28 11:19:38;;;;;;;73.22;60.47;;;14.90;99.90;;;;;;5027415;28;20056;-83
2023/04/28 11:22:15;;;;;;;130.38;112.78;;;14.90;99.90;;;;;;5026018;28;20080;-83
2023/04/28 11:24:57;;;;;;;21.23;19.08;;;14.90;99.90;;;;;;5026604;28;20144;-82
2023/04/28 11:27:24;;;;;;;12.05;10.77;;;14.80;99.90;;;;;;5027502;28;20049;-83
2023/04/28 11:29:50;;;;;;;10.38;9.27;;;14.70;99.90;;;;;;5029328;28;20063;-83
2023/04/28 11:32:16;;;;;;;10.77;9.15;;;14.70;99.90;;;;;;5030972;28;20045;-82
2023/04/28 11:34:41;;;;;;;14.35;12.50;;;14.70;99.90;;;;;;5029818;28;20048;-83
2023/04/28 11:37:08;;;;;;;12.07;10.45;;;14.60;99.90;;;;;;5029518;28;20490;-81
2023/04/28 11:39:34;;;;;;;9.90;8.90;;;14.60;99.90;;;;;;5036589;28;20116;-81
2023/04/28 11:42:07;;;;;;;10.45;8.52;;;14.60;99.90;;;;;;5011342;28;20064;-81
2023/04/28 11:44:33;;;;;;;11.25;8.00;;;14.60;99.90;;;;;;5011314;28;20048;-81
2023/04/28 11:47:01;;;;;;;8.63;7.72;;;14.70;99.90;;;;;;5028721;28;20418;-81
2023/04/28 11:49:29;;;;;;;8.68;7.35;;;14.80;99.90;;;;;;5030618;28;20041;-81
2023/04/28 11:51:56;;;;;;;18.77;16.98;;;14.90;99.90;;;;;;5030470;28;20136;-83
2023/04/28 11:54:28;;;;;;;9.23;8.27;;;14.80;99.90;;;;;;5021944;28;20400;-85
2023/04/28 11:56:56;;;;;;;8.93;7.95;;;14.80;99.90;;;;;;5021080;28;20546;-81
2023/04/28 11:59:29;;;;;;;8.15;7.35;;;14.80;99.90;;;;;;5029203;28;20132;-81
2023/04/28 12:01:58;;;;;;;9.07;7.68;;;14.70;99.90;;;;;;5013609;28;20446;-82
2023/04/28 12:04:40;;;;;;;10.45;8.32;;;14.70;99.90;;;;;;5030935;28;20038;-81
2023/04/28 12:07:16;;;;;;;;;;;14.50;99.90;;;;;;5031285;28;20037;-81
2023/04/28 12:09:46;;;;;;;8.73;7.90;;;14.50;99.90;;;;;;5050136;28;19921;-81
2023/04/28 12:12:14;;;;;;;8.68;6.93;;;14.50;99.90;;;;;;5025974;28;20880;-82
2023/04/28 12:15:00;;;;;;;7.25;6.55;;;14.60;99.90;;;;;;5013023;28;20400;-81
2023/04/28 12:17:47;;;;;;;8.45;7.10;;;14.60;99.90;;;;;;5028890;28;20045;-81
2023/04/28 12:20:34;;;;;;;7.88;7.15;;;14.60;99.90;;;;;;5029232;28;20084;-81
2023/04/28 12:22:59;;;;;;;9.02;8.13;;;14.70;99.90;;;;;;5027834;28;20049;-81
2023/04/28 12:25:25;;;;;;;8.65;7.65;;;14.90;99.90;;;;;;5029049;28;20057;-81
2023/04/28 12:28:02;;;;;;;8.68;7.53;;;15.10;99.90;;;;;;5030335;28;20116;-81
2023/04/28 12:30:29;;;;;;;9.18;8.25;;;15.10;99.90;;;;;;5028940;28;20045;-82
2023/04/28 12:32:55;;;;;;;9.32;8.38;;;15.10;99.90;;;;;;5028089;28;20037;-82
2023/04/28 12:35:22;;;;;;;9.93;8.88;;;15.10;99.90;;;;;;5027676;28;20122;-82
2023/04/28 12:37:48;;;;;;;15.05;13.48;;;15.00;99.90;;;;;;5028966;28;20037;-82
2023/04/28 12:40:13;;;;;;;23.90;19.17;;;15.00;99.90;;;;;;5043461;28;20586;-82
2023/04/28 12:42:39;;;;;;;14.20;12.65;;;14.90;99.90;;;;;;5032122;28;20045;-81